Time,TemperatureF,DewpointF,PressureIn,WindDirection,WindDirectionDegrees,WindSpeedMPH,WindSpeedGustMPH,Humidity,HourlyPrecipIn,Conditions,Clouds,dailyrainin,SolarRadiationWatts/m^2,SoftwareType,DateUTC
2013-08-04 00:00:00,54.5,51.0,30.11,North,360,0.0,1.0,88,0.00,,---,0.00,0.00,VWS V14.01,2013-08-04 05:00:00,
2013-08-04 00:01:00,54.4,50.9,30.11,North,360,0.0,0.0,88,0.00,,---,0.00,0.00,VWS V14.01,2013-08-04 05:01:00,
2013-08-04 00:06:00,54.3,50.8,30.11,North,360,0.0,0.0,88,0.00,,---,0.00,0.00,VWS V14.01,2013-08-04 05:06:00,
2013-08-04 00:11:00,54.2,50.7,30.11,North,360,0.0,0.0,88,0.00,,---,0.00,0.00,VWS V14.01,2013-08-04 05:11:00,
2013-08-04 00:16:00,54.1,50.9,30.11,North,360,0.0,0.0,89,0.00,,---,0.00,0.00,VWS V14.01,2013-08-04 05:16:00,
2013-08-04 00:21:00,54.0,50.8,30.12,North,360,0.0,0.0,89,0.00,,---,0.00,0.00,VWS V14.01,2013-08-04 05:21:00,
2013-08-04 00:26:00,53.8,50.6,30.12,North,360,0.0,0.0,89,0.00,,---,0.00,0.00,VWS V14.01,2013-08-04 05:26:00,
2013-08-04 00:31:00,53.6,50.4,30.12,North,360,0.0,0.0,89,0.00,,---,0.00,0.00,VWS V14.01,2013-08-04 05:31:00,
2013-08-04 00:36:00,53.4,50.2,30.12,North,360,0.0,0.0,89,0.00,,---,0.00,0.00,VWS V14.01,2013-08-04 05:36:00,
2013-08-04 00:41:00,53.3,50.2,30.12,North,360,0.0,0.0,89,0.00,,---,0.00,0.00,VWS V14.01,2013-08-04 05:41:00,
2013-08-04 00:46:00,53.2,50.0,30.12,North,360,0.0,0.0,89,0.00,,---,0.00,0.00,VWS V14.01,2013-08-04 05:46:00,
2013-08-04 00:51:00,53.1,50.0,30.12,North,360,0.0,0.0,89,0.00,,---,0.00,0.00,VWS V14.01,2013-08-04 05:51:00,
2013-08-04 00:56:00,53.0,49.8,30.12,North,360,0.0,0.0,89,0.00,,---,0.00,0.00,VWS V14.01,2013-08-04 05:56:00,
2013-08-04 01:00:00,52.9,49.8,30.12,North,360,0.0,0.0,89,0.00,,---,0.00,0.00,VWS V14.01,2013-08-04 06:00:00,
2013-08-04 01:01:00,52.9,49.8,30.12,North,360,0.0,0.0,89,0.00,,---,0.00,0.00,VWS V14.01,2013-08-04 06:01:00,
2013-08-04 01:06:00,52.8,50.0,30.12,North,360,0.0,0.0,90,0.00,,---,0.00,0.00,VWS V14.01,2013-08-04 06:06:00,
2013-08-04 01:10:00,52.9,50.0,30.12,North,360,0.0,0.0,90,0.00,,---,0.00,0.00,VWS V14.01,2013-08-04 06:10:00,
2013-08-04 01:16:00,52.8,50.0,30.13,North,360,0.0,0.0,90,0.00,,---,0.00,0.00,VWS V14.01,2013-08-04 06:16:00,
2013-08-04 01:21:00,52.7,49.8,30.13,North,360,0.0,0.0,90,0.00,,---,0.00,0.00,VWS V14.01,2013-08-04 06:21:00,
2013-08-04 01:26:00,52.3,49.5,30.13,North,360,0.0,1.0,90,0.00,,---,0.00,0.00,VWS V14.01,2013-08-04 06:26:00,
2013-08-04 01:31:00,52.1,49.3,30.13,North,360,0.0,1.0,90,0.00,,---,0.00,0.00,VWS V14.01,2013-08-04 06:31:00,
2013-08-04 01:36:00,51.8,49.0,30.13,North,360,0.0,1.0,90,0.00,,---,0.00,0.00,VWS V14.01,2013-08-04 06:36:00,
2013-08-04 01:40:00,51.7,48.9,30.13,North,360,0.0,1.0,90,0.00,,---,0.00,0.00,VWS V14.01,2013-08-04 06:40:00,
2013-08-04 01:46:00,51.5,48.7,30.14,North,360,0.0,1.0,90,0.00,,---,0.00,0.00,VWS V14.01,2013-08-04 06:46:00,
2013-08-04 01:51:00,51.4,48.6,30.14,North,360,0.0,1.0,90,0.00,,---,0.00,0.00,VWS V14.01,2013-08-04 06:51:00,
2013-08-04 01:56:00,51.3,48.5,30.14,North,360,0.0,1.0,90,0.00,,---,0.00,0.00,VWS V14.01,2013-08-04 06:56:00,
2013-08-04 02:00:00,51.2,48.7,30.14,North,360,0.0,1.0,91,0.00,,---,0.00,0.00,VWS V14.01,2013-08-04 07:00:00,
2013-08-04 02:06:00,51.0,48.5,30.14,North,360,0.0,1.0,91,0.00,,---,0.00,0.00,VWS V14.01,2013-08-04 07:06:00,
2013-08-04 02:11:00,50.8,48.3,30.14,North,360,0.0,1.0,91,0.00,,---,0.00,0.00,VWS V14.01,2013-08-04 07:11:00,
2013-08-04 02:16:00,50.7,48.2,30.14,North,360,0.0,1.0,91,0.00,,---,0.00,0.00,VWS V14.01,2013-08-04 07:16:00,
2013-08-04 02:21:00,50.6,48.1,30.14,North,360,0.0,1.0,91,0.00,,---,0.00,0.00,VWS V14.01,2013-08-04 07:21:00,
2013-08-04 02:25:00,50.5,48.0,30.14,North,360,0.0,1.0,91,0.00,,---,0.00,0.00,VWS V14.01,2013-08-04 07:25:00,
2013-08-04 02:30:00,50.4,47.9,30.14,North,360,0.0,1.0,91,0.00,,---,0.00,0.00,VWS V14.01,2013-08-04 07:30:00,
2013-08-04 02:36:00,50.4,47.9,30.14,North,360,0.0,1.0,91,0.00,,---,0.00,0.00,VWS V14.01,2013-08-04 07:36:00,
2013-08-04 02:40:00,50.4,48.2,30.15,North,360,0.0,1.0,92,0.00,,---,0.00,0.00,VWS V14.01,2013-08-04 07:40:00,
2013-08-04 02:46:00,50.3,48.1,30.14,North,360,0.0,1.0,92,0.00,,---,0.00,0.00,VWS V14.01,2013-08-04 07:46:00,
2013-08-04 02:50:00,50.3,48.1,30.14,North,360,0.0,1.0,92,0.00,,---,0.00,0.00,VWS V14.01,2013-08-04 07:50:00,
2013-08-04 02:56:00,50.1,47.9,30.15,North,360,0.0,1.0,92,0.00,,---,0.00,0.00,VWS V14.01,2013-08-04 07:56:00,
2013-08-04 03:00:00,50.1,47.9,30.15,North,360,0.0,1.0,92,0.00,,---,0.00,0.00,VWS V14.01,2013-08-04 08:00:00,
2013-08-04 03:01:00,50.1,47.9,30.15,North,360,0.0,0.0,92,0.00,,---,0.00,0.00,VWS V14.01,2013-08-04 08:01:00,
2013-08-04 03:05:00,50.0,47.8,30.15,North,360,0.0,0.0,92,0.00,,---,0.00,0.00,VWS V14.01,2013-08-04 08:05:00,
2013-08-04 03:10:00,49.9,47.7,30.14,North,360,0.0,0.0,92,0.00,,---,0.00,0.00,VWS V14.01,2013-08-04 08:10:00,
2013-08-04 03:15:00,49.9,47.7,30.15,North,360,0.0,0.0,92,0.00,,---,0.00,0.00,VWS V14.01,2013-08-04 08:15:00,
2013-08-04 03:21:00,49.8,47.6,30.15,North,360,0.0,0.0,92,0.00,,---,0.00,0.00,VWS V14.01,2013-08-04 08:21:00,
2013-08-04 03:26:00,49.8,47.6,30.15,North,360,0.0,0.0,92,0.00,,---,0.00,0.00,VWS V14.01,2013-08-04 08:26:00,
2013-08-04 03:30:00,49.8,47.6,30.15,North,360,0.0,0.0,92,0.00,,---,0.00,0.00,VWS V14.01,2013-08-04 08:30:00,
2013-08-04 03:36:00,49.7,47.5,30.16,North,360,0.0,0.0,92,0.00,,---,0.00,0.00,VWS V14.01,2013-08-04 08:36:00,
2013-08-04 03:40:00,49.6,47.4,30.15,North,360,0.0,0.0,92,0.00,,---,0.00,0.00,VWS V14.01,2013-08-04 08:40:00,
2013-08-04 03:45:00,49.5,47.3,30.15,North,360,0.0,0.0,92,0.00,,---,0.00,0.00,VWS V14.01,2013-08-04 08:45:00,
2013-08-04 03:51:00,49.4,47.2,30.14,North,360,0.0,0.0,92,0.00,,---,0.00,0.00,VWS V14.01,2013-08-04 08:51:00,
2013-08-04 03:55:00,49.4,47.5,30.14,North,360,0.0,1.0,93,0.00,,---,0.00,0.00,VWS V14.01,2013-08-04 08:55:00,
2013-08-04 04:00:00,49.4,47.5,30.14,North,360,0.0,1.0,93,0.00,,---,0.00,0.00,VWS V14.01,2013-08-04 09:00:00,
2013-08-04 04:01:00,49.4,47.5,30.14,North,360,0.0,0.0,93,0.00,,---,0.00,0.00,VWS V14.01,2013-08-04 09:01:00,
2013-08-04 04:05:00,49.4,47.5,30.14,North,360,0.0,0.0,93,0.00,,---,0.00,0.00,VWS V14.01,2013-08-04 09:05:00,
2013-08-04 04:10:00,49.4,47.5,30.14,North,360,0.0,0.0,93,0.00,,---,0.00,0.00,VWS V14.01,2013-08-04 09:10:00,
2013-08-04 04:16:00,49.2,47.3,30.14,North,360,0.0,1.0,93,0.00,,---,0.00,0.00,VWS V14.01,2013-08-04 09:16:00,
2013-08-04 04:21:00,48.8,46.6,30.14,North,360,0.0,1.0,92,0.00,,---,0.00,0.00,VWS V14.01,2013-08-04 09:21:00,
2013-08-04 04:26:00,48.7,46.8,30.14,North,360,0.0,1.0,93,0.00,,---,0.00,0.00,VWS V14.01,2013-08-04 09:26:00,
2013-08-04 04:31:00,48.6,46.7,30.14,North,360,0.0,1.0,93,0.00,,---,0.00,0.00,VWS V14.01,2013-08-04 09:31:00,
2013-08-04 04:36:00,48.5,46.6,30.14,North,360,0.0,1.0,93,0.00,,---,0.00,0.00,VWS V14.01,2013-08-04 09:36:00,
2013-08-04 04:41:00,48.5,46.6,30.13,North,360,0.0,1.0,93,0.00,,---,0.00,0.00,VWS V14.01,2013-08-04 09:41:00,
2013-08-04 04:46:00,48.4,46.2,30.14,North,360,0.0,1.0,92,0.00,,---,0.00,0.00,VWS V14.01,2013-08-04 09:46:00,
2013-08-04 04:51:00,48.3,46.1,30.14,North,360,0.0,1.0,92,0.00,,---,0.00,0.00,VWS V14.01,2013-08-04 09:51:00,
2013-08-04 04:56:00,48.2,46.3,30.14,North,360,0.0,1.0,93,0.00,,---,0.00,0.00,VWS V14.01,2013-08-04 09:56:00,
2013-08-04 05:00:00,48.0,46.1,30.14,North,360,0.0,0.0,93,0.00,,---,0.00,0.00,VWS V14.01,2013-08-04 10:00:00,
2013-08-04 05:05:00,47.9,46.0,30.14,North,360,0.0,0.0,93,0.00,,---,0.00,0.00,VWS V14.01,2013-08-04 10:05:00,
2013-08-04 05:11:00,47.9,46.0,30.14,North,360,0.0,0.0,93,0.00,,---,0.00,0.00,VWS V14.01,2013-08-04 10:11:00,
2013-08-04 05:16:00,47.8,45.9,30.14,North,360,0.0,0.0,93,0.00,,---,0.00,0.00,VWS V14.01,2013-08-04 10:16:00,
2013-08-04 05:20:00,47.8,45.9,30.15,North,360,0.0,0.0,93,0.00,,---,0.00,0.00,VWS V14.01,2013-08-04 10:20:00,
2013-08-04 05:26:00,47.7,45.8,30.15,North,360,0.0,0.0,93,0.00,,---,0.00,0.00,VWS V14.01,2013-08-04 10:26:00,
2013-08-04 05:31:00,47.7,45.8,30.15,North,360,0.0,0.0,93,0.00,,---,0.00,0.00,VWS V14.01,2013-08-04 10:31:00,
2013-08-04 05:36:00,47.6,45.7,30.15,North,360,0.0,0.0,93,0.00,,---,0.00,0.00,VWS V14.01,2013-08-04 10:36:00,
2013-08-04 05:41:00,47.6,45.7,30.15,North,360,0.0,0.0,93,0.00,,---,0.00,0.00,VWS V14.01,2013-08-04 10:41:00,
2013-08-04 05:46:00,47.5,45.6,30.15,North,360,0.0,0.0,93,0.00,,---,0.00,0.00,VWS V14.01,2013-08-04 10:46:00,
2013-08-04 05:50:00,47.4,45.5,30.16,North,360,0.0,0.0,93,0.00,,---,0.00,0.00,VWS V14.01,2013-08-04 10:50:00,
2013-08-04 05:56:00,47.4,45.5,30.16,North,360,0.0,0.0,93,0.00,,---,0.00,0.00,VWS V14.01,2013-08-04 10:56:00,
2013-08-04 06:00:00,47.3,45.4,30.16,North,360,0.0,0.0,93,0.00,,---,0.00,5.00,VWS V14.01,2013-08-04 11:00:00,
2013-08-04 06:01:00,47.3,45.4,30.16,North,360,0.0,0.0,93,0.00,,---,0.00,5.00,VWS V14.01,2013-08-04 11:01:00,
2013-08-04 06:06:00,47.2,45.3,30.16,North,360,0.0,0.0,93,0.00,,---,0.00,7.00,VWS V14.01,2013-08-04 11:06:00,
2013-08-04 06:11:00,47.2,45.3,30.16,North,360,0.0,0.0,93,0.00,,---,0.00,9.00,VWS V14.01,2013-08-04 11:11:00,
2013-08-04 06:16:00,47.2,45.3,30.16,North,360,0.0,0.0,93,0.00,,---,0.00,12.00,VWS V14.01,2013-08-04 11:16:00,
2013-08-04 06:21:00,47.2,45.3,30.16,North,360,0.0,0.0,93,0.00,,---,0.00,14.00,VWS V14.01,2013-08-04 11:21:00,
2013-08-04 06:26:00,47.3,45.7,30.16,North,360,0.0,0.0,94,0.00,,---,0.00,18.00,VWS V14.01,2013-08-04 11:26:00,
2013-08-04 06:31:00,47.3,45.4,30.16,North,360,0.0,0.0,93,0.00,,---,0.00,25.00,VWS V14.01,2013-08-04 11:31:00,
2013-08-04 06:36:00,47.4,45.5,30.16,North,360,0.0,0.0,93,0.00,,---,0.00,37.00,VWS V14.01,2013-08-04 11:36:00,
2013-08-04 06:41:00,47.4,45.5,30.16,North,360,0.0,0.0,93,0.00,,---,0.00,53.00,VWS V14.01,2013-08-04 11:41:00,
2013-08-04 06:46:00,47.4,45.8,30.16,North,360,0.0,0.0,94,0.00,,---,0.00,69.00,VWS V14.01,2013-08-04 11:46:00,
2013-08-04 06:50:00,47.6,46.0,30.16,North,360,0.0,0.0,94,0.00,,---,0.00,74.00,VWS V14.01,2013-08-04 11:50:00,
2013-08-04 06:56:00,47.8,46.2,30.17,North,360,0.0,0.0,94,0.00,,---,0.00,54.00,VWS V14.01,2013-08-04 11:56:00,
2013-08-04 07:00:00,47.9,46.3,30.17,North,360,0.0,0.0,94,0.00,,---,0.00,33.00,VWS V14.01,2013-08-04 12:00:00,
2013-08-04 07:01:00,48.0,46.4,30.17,North,360,0.0,0.0,94,0.00,,---,0.00,83.00,VWS V14.01,2013-08-04 12:01:00,
2013-08-04 07:06:00,48.2,46.6,30.17,North,360,0.0,0.0,94,0.00,,---,0.00,86.00,VWS V14.01,2013-08-04 12:06:00,
2013-08-04 07:10:00,48.5,46.9,30.18,North,360,0.0,0.0,94,0.00,,---,0.00,33.00,VWS V14.01,2013-08-04 12:10:00,
2013-08-04 07:16:00,48.8,47.4,30.18,North,360,0.0,0.0,95,0.00,,---,0.00,37.00,VWS V14.01,2013-08-04 12:16:00,
2013-08-04 07:21:00,49.2,47.8,30.18,North,360,0.0,0.0,95,0.00,,---,0.00,37.00,VWS V14.01,2013-08-04 12:21:00,
2013-08-04 07:26:00,49.6,48.2,30.18,North,360,0.0,0.0,95,0.00,,---,0.00,107.00,VWS V14.01,2013-08-04 12:26:00,
2013-08-04 07:31:00,50.1,48.7,30.18,North,360,0.0,0.0,95,0.00,,---,0.00,90.00,VWS V14.01,2013-08-04 12:31:00,
2013-08-04 07:35:00,51.4,50.3,30.18,North,360,0.0,0.0,96,0.00,,---,0.00,165.00,VWS V14.01,2013-08-04 12:35:00,
2013-08-04 07:41:00,52.2,51.1,30.18,North,360,0.0,0.0,96,0.00,,---,0.00,98.00,VWS V14.01,2013-08-04 12:41:00,
2013-08-04 07:46:00,52.8,51.7,30.19,North,360,0.0,1.0,96,0.00,,---,0.00,130.00,VWS V14.01,2013-08-04 12:46:00,
2013-08-04 07:51:00,53.4,52.3,30.19,North,360,0.0,1.0,96,0.00,,---,0.00,258.00,VWS V14.01,2013-08-04 12:51:00,
2013-08-04 07:55:00,53.8,52.7,30.19,North,360,0.0,1.0,96,0.00,,---,0.00,276.00,VWS V14.01,2013-08-04 12:55:00,
2013-08-04 08:00:00,54.2,53.1,30.19,North,360,1.0,1.0,96,0.00,,---,0.00,292.00,VWS V14.01,2013-08-04 13:00:00,
2013-08-04 08:05:00,54.8,53.7,30.19,North,360,0.0,2.0,96,0.00,,---,0.00,309.00,VWS V14.01,2013-08-04 13:05:00,
2013-08-04 08:10:00,55.3,54.2,30.19,North,360,0.0,2.0,96,0.00,,---,0.00,322.00,VWS V14.01,2013-08-04 13:10:00,
2013-08-04 08:15:00,56.0,54.9,30.19,NE,36,1.0,2.0,96,0.00,,---,0.00,338.00,VWS V14.01,2013-08-04 13:15:00,
2013-08-04 08:20:00,56.8,55.4,30.19,NNE,31,1.0,2.0,95,0.00,,---,0.00,360.00,VWS V14.01,2013-08-04 13:20:00,
2013-08-04 08:25:00,57.6,55.9,30.18,NNE,31,0.0,2.0,94,0.00,,---,0.00,380.00,VWS V14.01,2013-08-04 13:25:00,
2013-08-04 08:30:00,58.4,56.4,30.18,NNE,31,0.0,2.0,93,0.00,,---,0.00,394.00,VWS V14.01,2013-08-04 13:30:00,
2013-08-04 08:35:00,59.6,57.3,30.18,NNE,31,2.0,2.0,92,0.00,,---,0.00,410.00,VWS V14.01,2013-08-04 13:35:00,
2013-08-04 08:40:00,60.7,57.8,30.18,NNE,31,0.0,2.0,90,0.00,,---,0.00,429.00,VWS V14.01,2013-08-04 13:40:00,
2013-08-04 08:45:00,61.5,57.3,30.18,NE,55,0.0,4.0,86,0.00,,---,0.00,443.00,VWS V14.01,2013-08-04 13:45:00,
2013-08-04 08:50:00,62.4,58.2,30.19,NE,55,0.0,4.0,86,0.00,,---,0.00,457.00,VWS V14.01,2013-08-04 13:50:00,
2013-08-04 08:55:00,63.2,58.3,30.19,NE,55,1.0,4.0,84,0.00,,---,0.00,475.00,VWS V14.01,2013-08-04 13:55:00,
2013-08-04 09:00:00,63.9,58.0,30.19,ESE,104,0.0,1.0,81,0.00,,---,0.00,489.00,VWS V14.01,2013-08-04 14:00:00,
2013-08-04 09:05:00,64.5,58.2,30.19,ESE,103,1.0,2.0,80,0.00,,---,0.00,508.00,VWS V14.01,2013-08-04 14:05:00,
2013-08-04 09:10:00,64.9,58.2,30.19,ESE,118,0.0,2.0,79,0.00,,---,0.00,520.00,VWS V14.01,2013-08-04 14:10:00,
2013-08-04 09:15:00,65.4,58.4,30.19,ENE,63,4.0,4.0,78,0.00,,---,0.00,540.00,VWS V14.01,2013-08-04 14:15:00,
2013-08-04 09:20:00,65.8,58.0,30.19,ENE,57,2.0,4.0,76,0.00,,---,0.00,552.00,VWS V14.01,2013-08-04 14:20:00,
2013-08-04 09:25:00,66.1,58.3,30.19,ENE,62,4.0,5.0,76,0.00,,---,0.00,564.00,VWS V14.01,2013-08-04 14:25:00,
2013-08-04 09:30:00,66.5,58.3,30.19,NE,55,3.0,5.0,75,0.00,,---,0.00,584.00,VWS V14.01,2013-08-04 14:30:00,
2013-08-04 09:35:00,66.8,58.3,30.19,NE,52,4.0,6.0,74,0.00,,---,0.00,596.00,VWS V14.01,2013-08-04 14:35:00,
2013-08-04 09:40:00,67.0,58.5,30.19,NE,51,0.0,6.0,74,0.00,,---,0.00,613.00,VWS V14.01,2013-08-04 14:40:00,
2013-08-04 09:45:00,68.0,58.7,30.19,ENE,76,2.0,6.0,72,0.00,,---,0.00,621.00,VWS V14.01,2013-08-04 14:45:00,
2013-08-04 09:50:00,67.6,58.3,30.19,East,92,0.0,6.0,72,0.00,,---,0.00,635.00,VWS V14.01,2013-08-04 14:50:00,
2013-08-04 09:55:00,69.0,59.2,30.19,East,92,0.0,6.0,71,0.00,,---,0.00,656.00,VWS V14.01,2013-08-04 14:55:00,
2013-08-04 10:00:00,69.1,59.3,30.19,East,81,1.0,6.0,71,0.00,,---,0.00,661.00,VWS V14.01,2013-08-04 15:00:00,
2013-08-04 10:01:00,69.2,58.6,30.19,ENE,65,3.0,5.0,69,0.00,,---,0.00,664.00,VWS V14.01,2013-08-04 15:01:00,
2013-08-04 10:06:00,69.6,59.0,30.19,NE,46,1.0,5.0,69,0.00,,---,0.00,679.00,VWS V14.01,2013-08-04 15:06:00,
2013-08-04 10:11:00,69.3,58.7,30.18,SE,140,0.0,5.0,69,0.00,,---,0.00,691.00,VWS V14.01,2013-08-04 15:11:00,
2013-08-04 10:16:00,69.6,58.6,30.19,South,190,0.0,5.0,68,0.00,,---,0.00,703.00,VWS V14.01,2013-08-04 15:16:00,
2013-08-04 10:21:00,70.4,58.9,30.19,ENE,67,0.0,5.0,67,0.00,,---,0.00,717.00,VWS V14.01,2013-08-04 15:21:00,
2013-08-04 10:26:00,70.4,58.1,30.18,East,98,0.0,5.0,65,0.00,,---,0.00,726.00,VWS V14.01,2013-08-04 15:26:00,
2013-08-04 10:31:00,71.2,59.3,30.18,ENE,65,0.0,5.0,66,0.00,,---,0.00,737.00,VWS V14.01,2013-08-04 15:31:00,
2013-08-04 10:35:00,72.0,57.8,30.18,ENE,65,2.0,5.0,61,0.00,,---,0.00,744.00,VWS V14.01,2013-08-04 15:35:00,
2013-08-04 10:41:00,71.7,57.1,30.18,NE,39,0.0,5.0,60,0.00,,---,0.00,758.00,VWS V14.01,2013-08-04 15:41:00,
2013-08-04 10:46:00,71.0,57.8,30.18,West,268,0.0,5.0,63,0.00,,---,0.00,770.00,VWS V14.01,2013-08-04 15:46:00,
2013-08-04 10:51:00,70.5,58.2,30.18,SSW,212,2.0,5.0,65,0.00,,---,0.00,780.00,VWS V14.01,2013-08-04 15:51:00,
2013-08-04 10:56:00,70.3,57.6,30.18,WSW,238,3.0,5.0,64,0.00,,---,0.00,795.00,VWS V14.01,2013-08-04 15:56:00,
2013-08-04 11:00:00,70.3,58.0,30.18,WSW,238,0.0,5.0,65,0.00,,---,0.00,800.00,VWS V14.01,2013-08-04 16:00:00,
2013-08-04 11:01:00,71.4,58.2,30.18,WSW,238,2.0,2.0,63,0.00,,---,0.00,807.00,VWS V14.01,2013-08-04 16:01:00,
2013-08-04 11:05:00,72.1,57.0,30.18,ENE,68,2.0,3.0,59,0.00,,---,0.00,819.00,VWS V14.01,2013-08-04 16:05:00,
2013-08-04 11:11:00,72.9,57.3,30.18,ENE,68,1.0,3.0,58,0.00,,---,0.00,830.00,VWS V14.01,2013-08-04 16:11:00,
2013-08-04 11:16:00,72.2,58.0,30.18,WNW,293,2.0,3.0,61,0.00,,---,0.00,840.00,VWS V14.01,2013-08-04 16:16:00,
2013-08-04 11:21:00,73.1,58.4,30.17,WSW,250,1.0,3.0,60,0.00,,---,0.00,853.00,VWS V14.01,2013-08-04 16:21:00,
2013-08-04 11:26:00,71.8,57.6,30.17,SW,222,2.0,4.0,61,0.00,,---,0.00,860.00,VWS V14.01,2013-08-04 16:26:00,
2013-08-04 11:30:00,71.9,58.2,30.17,WNW,292,2.0,4.0,62,0.00,,---,0.00,819.00,VWS V14.01,2013-08-04 16:30:00,
2013-08-04 11:31:00,71.9,58.2,30.17,WNW,292,2.0,4.0,62,0.00,,---,0.00,819.00,VWS V14.01,2013-08-04 16:31:00,
2013-08-04 11:36:00,72.5,56.4,30.17,SW,225,1.0,4.0,57,0.00,,---,0.00,893.00,VWS V14.01,2013-08-04 16:36:00,
2013-08-04 11:41:00,72.6,56.5,30.17,SW,230,4.0,5.0,57,0.00,,---,0.00,904.00,VWS V14.01,2013-08-04 16:41:00,
2013-08-04 11:46:00,73.1,57.5,30.17,NNW,346,1.0,5.0,58,0.00,,---,0.00,824.00,VWS V14.01,2013-08-04 16:46:00,
2013-08-04 11:50:00,72.9,56.8,30.17,West,266,2.0,5.0,57,0.00,,---,0.00,907.00,VWS V14.01,2013-08-04 16:50:00,
2013-08-04 11:55:00,74.1,58.4,30.17,WNW,299,2.0,5.0,58,0.00,,---,0.00,940.00,VWS V14.01,2013-08-04 16:55:00,
2013-08-04 12:00:00,74.7,56.5,30.16,WNW,295,1.0,4.0,53,0.00,,---,0.00,969.00,VWS V14.01,2013-08-04 17:00:00,
2013-08-04 12:05:00,76.1,58.3,30.16,WSW,250,0.0,4.0,54,0.00,,---,0.00,1013.00,VWS V14.01,2013-08-04 17:05:00,
2013-08-04 12:10:00,76.4,58.0,30.15,WNW,289,0.0,4.0,53,0.00,,---,0.00,995.00,VWS V14.01,2013-08-04 17:10:00,
2013-08-04 12:15:00,76.4,58.0,30.15,East,92,0.0,4.0,53,0.00,,---,0.00,991.00,VWS V14.01,2013-08-04 17:15:00,
2013-08-04 12:20:00,75.4,55.5,30.15,NNW,340,1.0,4.0,50,0.00,,---,0.00,805.00,VWS V14.01,2013-08-04 17:20:00,
2013-08-04 12:25:00,75.2,56.9,30.14,NE,49,2.0,4.0,53,0.00,,---,0.00,427.00,VWS V14.01,2013-08-04 17:25:00,
2013-08-04 12:30:00,75.7,56.3,30.14,NE,41,1.0,5.0,51,0.00,,---,0.00,341.00,VWS V14.01,2013-08-04 17:30:00,
2013-08-04 12:35:00,74.4,56.2,30.14,NNE,27,0.0,5.0,53,0.00,,---,0.00,594.00,VWS V14.01,2013-08-04 17:35:00,
2013-08-04 12:40:00,73.5,55.3,30.14,NNE,27,1.0,5.0,53,0.00,,---,0.00,308.00,VWS V14.01,2013-08-04 17:40:00,
2013-08-04 12:45:00,73.3,54.6,30.14,NNE,27,0.0,5.0,52,0.00,,---,0.00,313.00,VWS V14.01,2013-08-04 17:45:00,
2013-08-04 12:50:00,73.1,52.8,30.13,NNE,22,0.0,5.0,49,0.00,,---,0.00,907.00,VWS V14.01,2013-08-04 17:50:00,
2013-08-04 12:55:00,74.1,51.4,30.13,NNE,22,1.0,5.0,45,0.00,,---,0.00,988.00,VWS V14.01,2013-08-04 17:55:00,
2013-08-04 13:00:00,73.9,52.4,30.13,East,98,1.0,1.0,47,0.00,,---,0.00,977.00,VWS V14.01,2013-08-04 18:00:00,
2013-08-04 13:06:00,74.6,54.2,30.13,South,185,1.0,4.0,49,0.00,,---,0.00,826.00,VWS V14.01,2013-08-04 18:06:00,
2013-08-04 13:11:00,75.5,52.1,30.13,South,181,0.0,4.0,44,0.00,,---,0.00,464.00,VWS V14.01,2013-08-04 18:11:00,
2013-08-04 13:16:00,74.7,52.6,30.13,SSW,213,1.0,4.0,46,0.00,,---,0.00,520.00,VWS V14.01,2013-08-04 18:16:00,
2013-08-04 13:21:00,74.1,54.3,30.13,SSW,213,0.0,4.0,50,0.00,,---,0.00,320.00,VWS V14.01,2013-08-04 18:21:00,
2013-08-04 13:26:00,74.7,54.3,30.14,WSW,245,2.0,4.0,49,0.00,,---,0.00,338.00,VWS V14.01,2013-08-04 18:26:00,
2013-08-04 13:31:00,73.5,54.3,30.13,NW,325,2.0,4.0,51,0.00,,---,0.00,381.00,VWS V14.01,2013-08-04 18:31:00,
2013-08-04 13:35:00,74.2,54.4,30.13,NNW,336,0.0,4.0,50,0.00,,---,0.00,865.00,VWS V14.01,2013-08-04 18:35:00,
2013-08-04 13:41:00,75.1,54.7,30.13,WSW,257,2.0,4.0,49,0.00,,---,0.00,933.00,VWS V14.01,2013-08-04 18:41:00,
2013-08-04 13:46:00,74.9,54.5,30.13,WSW,242,2.0,4.0,49,0.00,,---,0.00,844.00,VWS V14.01,2013-08-04 18:46:00,
2013-08-04 13:51:00,74.8,51.5,30.12,WSW,242,0.0,4.0,44,0.00,,---,0.00,666.00,VWS V14.01,2013-08-04 18:51:00,
2013-08-04 13:56:00,74.3,51.6,30.12,SSW,212,0.0,4.0,45,0.00,,---,0.00,693.00,VWS V14.01,2013-08-04 18:56:00,
2013-08-04 14:00:00,74.5,53.5,30.12,WSW,240,2.0,4.0,48,0.00,,---,0.00,668.00,VWS V14.01,2013-08-04 19:00:00,
2013-08-04 14:01:00,74.8,52.1,30.13,North,5,4.0,5.0,45,0.00,,---,0.00,503.00,VWS V14.01,2013-08-04 19:01:00,
2013-08-04 14:06:00,75.3,53.1,30.13,North,355,4.0,5.0,46,0.00,,---,0.00,831.00,VWS V14.01,2013-08-04 19:06:00,
2013-08-04 14:10:00,75.6,54.0,30.13,NNW,342,2.0,5.0,47,0.00,,---,0.00,557.00,VWS V14.01,2013-08-04 19:10:00,
2013-08-04 14:16:00,75.7,54.1,30.13,NNE,29,2.0,5.0,47,0.00,,---,0.00,462.00,VWS V14.01,2013-08-04 19:16:00,
2013-08-04 14:20:00,75.2,54.8,30.13,North,9,1.0,5.0,49,0.00,,---,0.00,468.00,VWS V14.01,2013-08-04 19:20:00,
2013-08-04 14:26:00,76.4,55.3,30.13,NNW,338,3.0,5.0,48,0.00,,---,0.00,468.00,VWS V14.01,2013-08-04 19:26:00,
2013-08-04 14:30:00,74.8,53.8,30.12,NNW,341,0.0,5.0,48,0.00,,---,0.00,424.00,VWS V14.01,2013-08-04 19:30:00,
2013-08-04 14:36:00,76.4,54.1,30.12,ENE,63,3.0,5.0,46,0.00,,---,0.00,427.00,VWS V14.01,2013-08-04 19:36:00,
2013-08-04 14:41:00,75.9,54.2,30.11,ENE,63,1.0,5.0,47,0.00,,---,0.00,315.00,VWS V14.01,2013-08-04 19:41:00,
2013-08-04 14:46:00,75.8,54.7,30.11,ENE,63,0.0,5.0,48,0.00,,---,0.00,297.00,VWS V14.01,2013-08-04 19:46:00,
2013-08-04 14:51:00,74.8,53.8,30.12,ENE,63,1.0,5.0,48,0.00,,---,0.00,218.00,VWS V14.01,2013-08-04 19:51:00,
2013-08-04 14:55:00,74.2,54.9,30.13,ENE,63,2.0,5.0,51,0.00,,---,0.00,176.00,VWS V14.01,2013-08-04 19:55:00,
2013-08-04 15:00:00,73.7,55.5,30.12,ENE,63,0.0,1.0,53,0.00,,---,0.00,227.00,VWS V14.01,2013-08-04 20:00:00,
2013-08-04 15:05:00,73.6,53.8,30.12,ENE,63,0.0,1.0,50,0.00,,---,0.00,220.00,VWS V14.01,2013-08-04 20:05:00,
2013-08-04 15:11:00,73.8,53.5,30.12,ENE,63,1.0,2.0,49,0.00,,---,0.00,236.00,VWS V14.01,2013-08-04 20:11:00,
2013-08-04 15:15:00,73.5,55.3,30.12,ENE,63,1.0,2.0,53,0.00,,---,0.00,200.00,VWS V14.01,2013-08-04 20:15:00,
2013-08-04 15:21:00,73.8,56.1,30.12,ENE,63,0.0,2.0,54,0.00,,---,0.00,190.00,VWS V14.01,2013-08-04 20:21:00,
2013-08-04 15:25:00,74.2,55.5,30.11,ENE,63,1.0,2.0,52,0.00,,---,0.00,209.00,VWS V14.01,2013-08-04 20:25:00,
2013-08-04 15:31:00,74.2,56.0,30.11,ENE,63,1.0,2.0,53,0.00,,---,0.00,216.00,VWS V14.01,2013-08-04 20:31:00,
2013-08-04 15:35:00,73.9,56.7,30.11,ENE,63,0.0,2.0,55,0.00,,---,0.00,250.00,VWS V14.01,2013-08-04 20:35:00,
2013-08-04 15:36:00,73.9,56.7,30.11,ENE,63,1.0,2.0,55,0.00,,---,0.00,250.00,VWS V14.01,2013-08-04 20:36:00,
2013-08-04 15:41:00,74.1,55.9,30.11,ENE,63,0.0,2.0,53,0.00,,---,0.00,202.00,VWS V14.01,2013-08-04 20:41:00,
2013-08-04 15:45:00,73.2,55.1,30.11,ENE,63,0.0,2.0,53,0.00,,---,0.00,213.00,VWS V14.01,2013-08-04 20:45:00,
2013-08-04 15:50:00,73.0,54.4,30.11,ENE,63,0.0,2.0,52,0.00,,---,0.00,207.00,VWS V14.01,2013-08-04 20:50:00,
2013-08-04 15:56:00,73.1,56.5,30.11,ENE,63,0.0,2.0,56,0.00,,---,0.00,178.00,VWS V14.01,2013-08-04 20:56:00,
2013-08-04 16:00:00,73.2,56.1,30.11,ENE,63,1.0,2.0,55,0.00,,---,0.00,183.00,VWS V14.01,2013-08-04 21:00:00,
2013-08-04 16:01:00,73.0,55.9,30.11,ENE,63,0.0,1.0,55,0.00,,---,0.00,178.00,VWS V14.01,2013-08-04 21:01:00,
2013-08-04 16:06:00,72.9,55.8,30.11,ENE,63,1.0,1.0,55,0.00,,---,0.00,185.00,VWS V14.01,2013-08-04 21:06:00,
2013-08-04 16:11:00,72.9,57.8,30.11,ENE,63,0.0,1.0,59,0.00,,---,0.00,258.00,VWS V14.01,2013-08-04 21:11:00,
2013-08-04 16:16:00,72.7,55.6,30.11,ENE,63,1.0,1.0,55,0.00,,---,0.00,239.00,VWS V14.01,2013-08-04 21:16:00,
2013-08-04 16:21:00,72.5,56.4,30.11,ENE,63,2.0,2.0,57,0.00,,---,0.00,272.00,VWS V14.01,2013-08-04 21:21:00,
2013-08-04 16:26:00,72.6,57.0,30.11,ENE,63,0.0,2.0,58,0.00,,---,0.00,299.00,VWS V14.01,2013-08-04 21:26:00,
2013-08-04 16:31:00,73.8,57.1,30.11,ENE,63,0.0,2.0,56,0.00,,---,0.00,304.00,VWS V14.01,2013-08-04 21:31:00,
2013-08-04 16:36:00,73.8,55.6,30.11,ENE,63,0.0,2.0,53,0.00,,---,0.00,520.00,VWS V14.01,2013-08-04 21:36:00,
2013-08-04 16:41:00,73.7,55.0,30.10,North,9,0.0,2.0,52,0.00,,---,0.00,490.00,VWS V14.01,2013-08-04 21:41:00,
2013-08-04 16:46:00,74.6,55.8,30.11,North,9,1.0,3.0,52,0.00,,---,0.00,339.00,VWS V14.01,2013-08-04 21:46:00,
2013-08-04 16:49:00,74.8,56.5,30.11,North,9,1.0,3.0,53,0.00,,---,0.00,246.00,VWS V14.01,2013-08-04 21:49:00,
2013-08-04 16:54:00,74.5,57.3,30.10,North,9,1.0,3.0,55,0.00,,---,0.00,524.00,VWS V14.01,2013-08-04 21:54:00,
2013-08-04 16:58:00,74.4,54.6,30.10,North,355,1.0,3.0,50,0.00,,---,0.00,318.00,VWS V14.01,2013-08-04 21:58:00,
2013-08-04 17:00:00,74.4,54.6,30.10,North,355,1.0,3.0,50,0.00,,---,0.00,318.00,VWS V14.01,2013-08-04 22:00:00,
2013-08-04 17:04:00,74.6,53.6,30.10,North,355,1.0,2.0,48,0.00,,---,0.00,318.00,VWS V14.01,2013-08-04 22:04:00,
2013-08-04 17:09:00,74.1,53.7,30.10,North,355,0.0,2.0,49,0.00,,---,0.00,320.00,VWS V14.01,2013-08-04 22:09:00,
2013-08-04 17:13:00,73.6,55.4,30.10,North,355,0.0,2.0,53,0.00,,---,0.00,214.00,VWS V14.01,2013-08-04 22:13:00,
2013-08-04 17:19:00,72.8,55.2,30.10,North,355,0.0,2.0,54,0.00,,---,0.00,230.00,VWS V14.01,2013-08-04 22:19:00,
2013-08-04 17:24:00,73.3,53.6,30.09,NNW,338,0.0,2.0,50,0.00,,---,0.00,229.00,VWS V14.01,2013-08-04 22:24:00,
2013-08-04 17:29:00,73.3,53.6,30.09,NNW,338,0.0,2.0,50,0.00,,---,0.00,199.00,VWS V14.01,2013-08-04 22:29:00,
2013-08-04 17:34:00,73.1,53.9,30.09,NNW,338,0.0,2.0,51,0.00,,---,0.00,220.00,VWS V14.01,2013-08-04 22:34:00,
2013-08-04 17:38:00,72.7,54.1,30.09,NNW,338,0.0,2.0,52,0.00,,---,0.00,214.00,VWS V14.01,2013-08-04 22:38:00,
2013-08-04 17:43:00,73.1,55.0,30.09,NNW,338,0.0,2.0,53,0.00,,---,0.00,206.00,VWS V14.01,2013-08-04 22:43:00,
2013-08-04 17:49:00,73.3,57.7,30.09,NNW,338,0.0,2.0,58,0.00,,---,0.00,239.00,VWS V14.01,2013-08-04 22:49:00,
2013-08-04 17:54:00,72.6,54.5,30.09,NNW,338,0.0,2.0,53,0.00,,---,0.00,207.00,VWS V14.01,2013-08-04 22:54:00,
2013-08-04 17:59:00,73.1,55.0,30.09,NNW,338,0.0,2.0,53,0.00,,---,0.00,174.00,VWS V14.01,2013-08-04 22:59:00,
2013-08-04 18:00:00,73.1,55.0,30.09,NNW,338,0.0,2.0,53,0.00,,---,0.00,174.00,VWS V14.01,2013-08-04 23:00:00,
2013-08-04 18:04:00,73.0,55.4,30.09,NNW,338,0.0,1.0,54,0.00,,---,0.00,179.00,VWS V14.01,2013-08-04 23:04:00,
2013-08-04 18:09:00,72.4,56.8,30.08,NNW,338,0.0,1.0,58,0.00,,---,0.00,188.00,VWS V14.01,2013-08-04 23:09:00,
2013-08-04 18:14:00,72.2,56.1,30.08,NNW,338,0.0,1.0,57,0.00,,---,0.00,153.00,VWS V14.01,2013-08-04 23:14:00,
2013-08-04 18:18:00,72.1,56.5,30.08,NNW,338,0.0,1.0,58,0.00,,---,0.00,132.00,VWS V14.01,2013-08-04 23:18:00,
2013-08-04 18:23:00,72.2,58.0,30.08,NNW,338,0.0,1.0,61,0.00,,---,0.00,125.00,VWS V14.01,2013-08-04 23:23:00,
2013-08-04 18:29:00,71.8,57.2,30.08,NNW,338,0.0,1.0,60,0.00,,---,0.00,123.00,VWS V14.01,2013-08-04 23:29:00,
2013-08-04 18:34:00,71.8,58.1,30.08,NNW,338,0.0,1.0,62,0.00,,---,0.00,121.00,VWS V14.01,2013-08-04 23:34:00,
2013-08-04 18:39:00,72.0,58.3,30.08,NNW,338,0.0,1.0,62,0.00,,---,0.00,107.00,VWS V14.01,2013-08-04 23:39:00,
2013-08-04 18:44:00,71.8,58.1,30.07,NNW,338,0.0,1.0,62,0.00,,---,0.00,102.00,VWS V14.01,2013-08-04 23:44:00,
2013-08-04 18:49:00,71.6,57.9,30.07,NNW,338,0.0,1.0,62,0.00,,---,0.00,84.00,VWS V14.01,2013-08-04 23:49:00,
2013-08-04 18:54:00,71.4,57.3,30.07,NNW,338,0.0,1.0,61,0.00,,---,0.00,76.00,VWS V14.01,2013-08-04 23:54:00,
2013-08-04 18:59:00,71.2,58.0,30.07,NNW,338,0.0,1.0,63,0.00,,---,0.00,72.00,VWS V14.01,2013-08-04 23:59:00,
2013-08-04 19:00:00,71.2,58.0,30.07,NNW,338,0.0,1.0,63,0.00,,---,0.00,72.00,VWS V14.01,2013-08-05 00:00:00,
2013-08-04 19:04:00,71.3,58.9,30.07,NNW,338,0.0,0.0,65,0.00,,---,0.00,69.00,VWS V14.01,2013-08-05 00:04:00,
2013-08-04 19:09:00,71.6,59.2,30.07,NNW,338,0.0,0.0,65,0.00,,---,0.00,54.00,VWS V14.01,2013-08-05 00:09:00,
2013-08-04 19:14:00,71.6,59.2,30.07,NNW,338,0.0,0.0,65,0.00,,---,0.00,44.00,VWS V14.01,2013-08-05 00:14:00,
2013-08-04 19:19:00,71.3,58.1,30.07,NNW,338,0.0,0.0,63,0.00,,---,0.00,40.00,VWS V14.01,2013-08-05 00:19:00,
2013-08-04 19:24:00,71.3,58.9,30.07,NNW,338,0.0,0.0,65,0.00,,---,0.00,39.00,VWS V14.01,2013-08-05 00:24:00,
2013-08-04 19:29:00,71.2,59.3,30.07,NNW,338,0.0,0.0,66,0.00,,---,0.00,35.00,VWS V14.01,2013-08-05 00:29:00,
2013-08-04 19:33:00,70.9,59.4,30.07,NNW,338,0.0,0.0,67,0.00,,---,0.00,33.00,VWS V14.01,2013-08-05 00:33:00,
2013-08-04 19:38:00,70.8,60.1,30.06,NNW,338,0.0,0.0,69,0.00,,---,0.00,28.00,VWS V14.01,2013-08-05 00:38:00,
2013-08-04 19:44:00,70.6,61.1,30.06,NNW,338,0.0,0.0,72,0.00,,---,0.00,25.00,VWS V14.01,2013-08-05 00:44:00,
2013-08-04 19:48:00,70.5,61.4,30.06,NNW,338,0.0,0.0,73,0.00,,---,0.00,21.00,VWS V14.01,2013-08-05 00:48:00,
2013-08-04 19:53:00,70.4,61.7,30.06,NNW,338,0.0,0.0,74,0.00,,---,0.00,19.00,VWS V14.01,2013-08-05 00:53:00,
2013-08-04 19:58:00,70.4,61.7,30.06,NNW,338,0.0,0.0,74,0.00,,---,0.00,14.00,VWS V14.01,2013-08-05 00:58:00,
2013-08-04 20:00:00,70.4,61.7,30.06,NNW,338,0.0,0.0,74,0.00,,---,0.00,14.00,VWS V14.01,2013-08-05 01:00:00,
2013-08-04 20:03:00,70.3,61.6,30.06,NNW,338,0.0,0.0,74,0.00,,---,0.00,11.00,VWS V14.01,2013-08-05 01:03:00,
2013-08-04 20:08:00,70.1,61.0,30.06,NNW,338,0.0,0.0,73,0.00,,---,0.00,7.00,VWS V14.01,2013-08-05 01:08:00,
2013-08-04 20:13:00,69.9,60.9,30.06,NNW,338,0.0,0.0,73,0.00,,---,0.00,5.00,VWS V14.01,2013-08-05 01:13:00,
2013-08-04 20:18:00,69.6,61.0,30.06,NNW,338,0.0,0.0,74,0.00,,---,0.00,0.00,VWS V14.01,2013-08-05 01:18:00,
2013-08-04 20:23:00,69.4,60.4,30.06,NNW,338,0.0,0.0,73,0.00,,---,0.00,0.00,VWS V14.01,2013-08-05 01:23:00,
2013-08-04 20:28:00,69.2,60.6,30.06,NNW,338,0.0,0.0,74,0.00,,---,0.00,0.00,VWS V14.01,2013-08-05 01:28:00,
2013-08-04 20:33:00,68.8,60.6,30.06,NNW,338,0.0,0.0,75,0.00,,---,0.00,0.00,VWS V14.01,2013-08-05 01:33:00,
2013-08-04 20:38:00,68.4,60.2,30.06,NNW,338,0.0,0.0,75,0.00,,---,0.00,0.00,VWS V14.01,2013-08-05 01:38:00,
2013-08-04 20:43:00,68.1,59.9,30.06,NNW,338,0.0,0.0,75,0.00,,---,0.00,0.00,VWS V14.01,2013-08-05 01:43:00,
2013-08-04 20:48:00,67.7,59.9,30.06,NNW,338,0.0,0.0,76,0.00,,---,0.00,0.00,VWS V14.01,2013-08-05 01:48:00,
2013-08-04 20:53:00,67.3,59.5,30.06,NNW,338,0.0,0.0,76,0.00,,---,0.00,0.00,VWS V14.01,2013-08-05 01:53:00,
2013-08-04 20:58:00,67.0,59.2,30.06,NNW,338,0.0,0.0,76,0.00,,---,0.00,0.00,VWS V14.01,2013-08-05 01:58:00,
2013-08-04 21:00:00,67.0,59.2,30.06,NNW,338,0.0,0.0,76,0.00,,---,0.00,0.00,VWS V14.01,2013-08-05 02:00:00,
2013-08-04 21:03:00,66.7,59.3,30.06,NNW,338,0.0,0.0,77,0.00,,---,0.00,0.00,VWS V14.01,2013-08-05 02:03:00,
2013-08-04 21:08:00,66.5,59.1,30.06,NNW,338,0.0,0.0,77,0.00,,---,0.00,0.00,VWS V14.01,2013-08-05 02:08:00,
2013-08-04 21:13:00,66.2,59.2,30.06,NNW,338,0.0,0.0,78,0.00,,---,0.00,0.00,VWS V14.01,2013-08-05 02:13:00,
2013-08-04 21:18:00,66.0,59.3,30.06,NNW,338,0.0,0.0,79,0.00,,---,0.00,0.00,VWS V14.01,2013-08-05 02:18:00,
2013-08-04 21:23:00,65.7,59.0,30.06,NNW,338,0.0,0.0,79,0.00,,---,0.00,0.00,VWS V14.01,2013-08-05 02:23:00,
2013-08-04 21:28:00,65.5,59.5,30.06,NNW,338,0.0,0.0,81,0.00,,---,0.00,0.00,VWS V14.01,2013-08-05 02:28:00,
2013-08-04 21:33:00,65.3,59.3,30.06,NNW,338,0.0,0.0,81,0.00,,---,0.00,0.00,VWS V14.01,2013-08-05 02:33:00,
2013-08-04 21:38:00,65.0,59.0,30.06,NNW,338,0.0,0.0,81,0.00,,---,0.00,0.00,VWS V14.01,2013-08-05 02:38:00,
2013-08-04 21:43:00,64.8,59.2,30.06,NNW,338,0.0,0.0,82,0.00,,---,0.00,0.00,VWS V14.01,2013-08-05 02:43:00,
2013-08-04 21:48:00,64.6,59.0,30.06,NNW,338,0.0,0.0,82,0.00,,---,0.00,0.00,VWS V14.01,2013-08-05 02:48:00,
2013-08-04 21:53:00,64.4,58.8,30.06,NNW,338,0.0,0.0,82,0.00,,---,0.00,0.00,VWS V14.01,2013-08-05 02:53:00,
2013-08-04 21:58:00,64.2,58.6,30.06,NNW,338,0.0,0.0,82,0.00,,---,0.00,0.00,VWS V14.01,2013-08-05 02:58:00,
2013-08-04 22:00:00,64.2,58.6,30.06,NNW,338,0.0,0.0,82,0.00,,---,0.00,0.00,VWS V14.01,2013-08-05 03:00:00,
2013-08-04 22:03:00,64.0,58.4,30.06,NNW,338,0.0,0.0,82,0.00,,---,0.00,0.00,VWS V14.01,2013-08-05 03:03:00,
2013-08-04 22:08:00,63.9,58.3,30.06,NNW,338,0.0,0.0,82,0.00,,---,0.00,0.00,VWS V14.01,2013-08-05 03:08:00,
2013-08-04 22:13:00,63.7,58.1,30.06,NNW,338,0.0,0.0,82,0.00,,---,0.00,0.00,VWS V14.01,2013-08-05 03:13:00,
2013-08-04 22:18:00,63.5,58.2,30.06,NNW,338,0.0,0.0,83,0.00,,---,0.00,0.00,VWS V14.01,2013-08-05 03:18:00,
2013-08-04 22:23:00,63.3,58.1,30.06,NNW,338,0.0,0.0,83,0.00,,---,0.00,0.00,VWS V14.01,2013-08-05 03:23:00,
2013-08-04 22:28:00,63.1,57.9,30.06,NNW,338,0.0,0.0,83,0.00,,---,0.00,0.00,VWS V14.01,2013-08-05 03:28:00,
2013-08-04 22:33:00,63.0,57.8,30.06,NNW,338,0.0,0.0,83,0.00,,---,0.00,0.00,VWS V14.01,2013-08-05 03:33:00,
2013-08-04 22:38:00,62.8,57.9,30.06,NNW,338,0.0,0.0,84,0.00,,---,0.00,0.00,VWS V14.01,2013-08-05 03:38:00,
2013-08-04 22:43:00,62.6,57.7,30.06,NNW,338,0.0,0.0,84,0.00,,---,0.00,0.00,VWS V14.01,2013-08-05 03:43:00,
2013-08-04 22:48:00,62.5,57.9,30.06,NNW,338,0.0,0.0,85,0.00,,---,0.00,0.00,VWS V14.01,2013-08-05 03:48:00,
2013-08-04 22:53:00,62.3,57.7,30.06,NNW,338,0.0,0.0,85,0.00,,---,0.00,0.00,VWS V14.01,2013-08-05 03:53:00,
2013-08-04 22:58:00,62.2,57.6,30.06,NNW,338,0.0,1.0,85,0.00,,---,0.00,0.00,VWS V14.01,2013-08-05 03:58:00,
2013-08-04 23:00:00,62.2,57.6,30.06,NNW,338,0.0,1.0,85,0.00,,---,0.00,0.00,VWS V14.01,2013-08-05 04:00:00,
2013-08-04 23:01:00,62.1,57.5,30.05,NNW,338,0.0,0.0,85,0.00,,---,0.00,0.00,VWS V14.01,2013-08-05 04:01:00,
2013-08-04 23:06:00,61.9,57.3,30.05,NNW,338,0.0,0.0,85,0.00,,---,0.00,0.00,VWS V14.01,2013-08-05 04:06:00,
2013-08-04 23:11:00,61.7,57.5,30.05,NNW,338,0.0,0.0,86,0.00,,---,0.00,0.00,VWS V14.01,2013-08-05 04:11:00,
2013-08-04 23:16:00,61.6,57.4,30.05,NNW,338,0.0,0.0,86,0.00,,---,0.00,0.00,VWS V14.01,2013-08-05 04:16:00,
2013-08-04 23:21:00,61.3,57.1,30.06,NNW,338,0.0,1.0,86,0.00,,---,0.00,0.00,VWS V14.01,2013-08-05 04:21:00,
2013-08-04 23:26:00,61.1,56.9,30.05,NNW,338,0.0,1.0,86,0.00,,---,0.00,0.00,VWS V14.01,2013-08-05 04:26:00,
2013-08-04 23:31:00,61.0,56.8,30.05,NNW,338,0.0,1.0,86,0.00,,---,0.00,0.00,VWS V14.01,2013-08-05 04:31:00,
2013-08-04 23:36:00,60.8,56.9,30.05,NNW,338,0.0,1.0,87,0.00,,---,0.00,0.00,VWS V14.01,2013-08-05 04:36:00,
2013-08-04 23:41:00,60.5,56.6,30.05,NNW,338,0.0,1.0,87,0.00,,---,0.00,0.00,VWS V14.01,2013-08-05 04:41:00,
2013-08-04 23:46:00,60.2,56.6,30.05,NNW,338,1.0,1.0,88,0.00,,---,0.00,0.00,VWS V14.01,2013-08-05 04:46:00,
2013-08-04 23:51:00,60.0,56.8,30.05,NNW,338,0.0,1.0,89,0.00,,---,0.00,0.00,VWS V14.01,2013-08-05 04:51:00,
2013-08-04 23:57:00,59.8,56.6,30.05,NNW,338,0.0,1.0,89,0.00,,---,0.00,0.00,VWS V14.01,2013-08-05 04:57:00,